עמוד ראשי
METAR-TAF:

METAR-TAF

שדות תעופה :

Iliamna, אלסקה, ארצות הברית

קו רוחב: 59-45N, קו אורך: 154-54W, גובה: 57מטר

תצפית מזג אוויר נוכחית

הדו"ח נערך לפני 11 שעות ו 22דקות, בשעה 04:53 UTC
רוח 6קשר מכיוון מערב/צפון-מערב
טמפרטורת 19 צלסיוס
לחות 46%
לחץ 1019 hPa
ראות: 16.1קילומטר
מעט עננים בגובה 9000רגל

METAR: PAIL 150453Z 30006KT 10SM FEW090 19/07 A3010

זמן: 08:15 (16:15 UTC)

תחזית

הדו"ח נערך לפני 4 שעות ו 44דקות, בשעה 11:31 UTC
תחזית בתוקף מ 15 ב 12 UTC עד 16 ב 12 UTC
רוח 4קשר עם כיוונים משתנים
ראות: 10קילומטר
שמיים נקיים
מ 15 ב 2200UTC
רוח 6קשר מכיוון דרום
ראות: 10קילומטר
עננים פזורים בגובה 6000רגל
מ 16 ב 0200UTC
רוח 5קשר מכיוון דרום/דרום-מערב
ראות: 10קילומטר
עננים בינוניים בגובה 6000רגל
ממטרים במרחב,

TAF: PAIL 151131Z 1512/1612 VRB04KT P6SM SKC FM152200 19006KT P6SM SCT060 FM160200 20005KT P6SM VCSH BKN060

תצפיות ותחזיות מזג אוויר לגבי יותר מ- 4,000 שדות תעופה ברחבי העולם. דוחות METAR ו- TAF.

התחנות הזמינות מסומנות בנקודות צהובות ואדומות על גבי המפה.

העבר את העכבר לנקודה הצבעונית על מנת לראות את שם התחנה.

לאחר מכן, לחץ כדי לראות את תוכן ואת תחזיות מזג האוויר.

כדי לשנות את המפה: לחץ על הכפתורים הירוקים עם הפלוס השחור כדי להתקרב; על הכפתור הירוק עם המקף כדי להתרחק; או בחיצים הירוקים למפות סמוכות.


METAR-TAF: